• Join FlightAware (Why Join?)
  • Login
  • US Flag 
01:51AM EDT


 

Airport Tracker/Info


-or-


 

Live Flight TrackerFlight Track Log ✈ UAL479 ✈ 18-Apr-2013 ✈ KIAH - KLAX

Flight Track Log - Related Links

Times and Time Zones

All times are in EDT time to prevent confusion due to time zone crossing. See the UAL479 flight status page for this flight to view local times or setup timezone preferences in your user account.

Time Position Orientation Groundspeed Altitude Reporting Facility
EDT Latitude Longitude Course Direction KTS MPH feet Rate Location/Type
12:16AM 29.9778 -95.3344 291° West 175 201 600  Level Houston Center
12:16AM 29.9750 -95.3517 259° West 178 205 1,400 1,860 Climbing Houston Center
12:16AM 29.9706 -95.3778 259° West 204 235 2,100 2,400 Climbing Houston Center
12:17AM 29.9675 -95.4533 267° West 246 283 5,000 3,000 Climbing Houston Center
12:18AM 29.9800 -95.5311 281° West 248 285 8,200 2,640 Climbing Houston Center
12:19AM 29.9944 -95.6139 281° West 262 302 10,400 2,280 Climbing Houston Center
12:20AM 30.0432 -95.9175 276° West  Level FlightAware Approximate
12:20AM 30.0125 -95.7147 282° West 317 365 12,900  Level Houston Center
12:21AM 30.0609 -96.0327 291° West  Level FlightAware Approximate
12:21AM 30.0300 -95.8175 281° West 329 379 15,300  Level Houston Center
12:22AM 30.0525 -95.9467 281° West 345 397 18,000 2,220 Climbing Houston Center
12:23AM 30.0681 -96.0403 281° West 352 405 19,800 2,040 Climbing Houston Center
12:24AM 30.0889 -96.1789 280° West 366 421 22,200 2,100 Climbing Houston Center
12:25AM 30.1067 -96.2964 280° West 374 430 24,100 1,800 Climbing Houston Center
12:26AM 30.1244 -96.4169 280° West 381 438 25,900 1,680 Climbing Houston Center
12:27AM 30.1419 -96.5244 281° West 381 438 27,500 1,440 Climbing Houston Center
12:28AM 30.1589 -96.6489 279° West 386 444 28,900 1,440 Climbing Houston Center
12:30AM 30.1786 -96.7739 280° West 390 449 30,500 2,160 Climbing Houston Center
12:31AM 30.1978 -96.8892 281° West 365 420 33,300 1,860 Climbing Houston Center
12:32AM 30.2133 -96.9992 279° West 344 396 34,300 900 Climbing Houston Center
12:33AM 30.2297 -97.1150 279° West 354 407 35,200 780 Climbing Houston Center
12:34AM 30.2458 -97.2289 279° West 355 409 36,000 360 Climbing Houston Center
12:35AM 30.2617 -97.3442 279° West 357 411 36,000  Level Houston Center
12:36AM 30.2778 -97.4578 279° West 355 409 36,000  Level Houston Center
12:37AM 30.2944 -97.5725 280° West 358 412 36,000  Level Houston Center
12:38AM 30.3119 -97.6878 280° West 358 412 36,000  Level Houston Center
12:39AM 30.3283 -97.8028 279° West 357 411 36,000  Level Houston Center
12:40AM 30.3444 -97.9161 279° West 355 409 36,000  Level Houston Center
12:41AM 30.3600 -98.0319 279° West 360 414 36,000  Level Houston Center
12:42AM 30.3767 -98.1458 280° West 357 411 36,000  Level Houston Center
12:43AM 30.4083 -98.2594 288° West 362 417 36,000  Level Houston Center
12:44AM 30.4547 -98.3694 296° West 373 429 36,000  Level Houston Center
12:45AM 30.5014 -98.4803 296° West 378 435 36,000  Level Houston Center
12:46AM 30.5467 -98.5889 296° West 371 427 36,000  Level Houston Center
12:47AM 30.5956 -98.7000 297° West 380 437 36,000  Level Houston Center
12:48AM 30.6436 -98.8114 297° West 381 438 36,000  Level Houston Center
12:49AM 30.6900 -98.9211 296° West 376 433 36,000  Level Houston Center
12:50AM 30.7369 -99.0308 296° West 375 432 36,000  Level Houston Center
12:51AM 30.7839 -99.1397 297° West 373 429 36,000  Level Houston Center
12:52AM 30.8344 -99.2581 296° West 370 426 36,000  Level Houston Center
12:53AM 30.8786 -99.3653 296° West 370 426 36,000  Level Houston Center
12:54AM 30.9236 -99.4708 296° West 367 422 36,000  Level Houston Center
12:55AM 30.9686 -99.5783 296° West 370 426 36,000  Level Houston Center
12:56AM 31.0133 -99.6872 296° West 372 428 36,000  Level Houston Center
12:57AM 31.0586 -99.7961 296° West 374 430 36,000  Level Houston Center
12:58AM 31.1025 -99.9056 295° West 374 430 36,000  Level Houston Center
12:59AM 31.1481 -100.0144 296° West 374 430 36,000  Level Houston Center
01:00AM 31.1933 -100.1236 296° West 374 430 36,000  Level Houston Center
01:01AM 31.2383 -100.2342 295° West 377 434 36,000 -60 Level Houston Center
01:02AM 31.2836 -100.3447 288° West 378 435 35,900  Descending Houston Center
01:02AM 31.3033 -100.3917 296° West 371 427 36,000 60 Climbing Fort Worth Center
01:03AM 31.3464 -100.5025 294° West 371 427 36,000  Level Fort Worth Center
01:04AM 31.3897 -100.6108 295° West 371 427 36,000  Level Fort Worth Center
01:05AM 31.4308 -100.7169 294° West 365 420 36,000  Level Fort Worth Center
01:06AM 31.4739 -100.8258 295° West 365 420 36,000  Level Fort Worth Center
01:07AM 31.5167 -100.9344 295° West 365 420 36,000  Level Fort Worth Center
01:08AM 31.5636 -101.0483 296° West 365 420 36,000  Level Fort Worth Center
01:10AM 31.6295 -101.1981 297° West  Level FlightAware Approximate
01:11AM 31.6978 -101.3831 297° West 385 443 36,000  Level Albuquerque Center
01:12AM 31.7481 -101.5053 296° West 386 444 36,000  Level Fort Worth Center
01:13AM 31.7961 -101.6222 296° West 386 444 36,000  Level Fort Worth Center
01:14AM 31.8403 -101.7367 294° West 386 444 36,000  Level Fort Worth Center
01:16AM 31.9244 -101.9583 294° West 384 442 36,000  Level Fort Worth Center
01:17AM 31.9681 -102.0733 294° West 384 442 36,000 -60 Level Fort Worth Center
01:18AM 32.0119 -102.1858 295° West 384 442 35,900  Descending Fort Worth Center
01:19AM 32.0556 -102.3031 294° West 384 442 36,000  Climbing Fort Worth Center
01:20AM 32.0989 -102.4183 294° West 384 442 36,000  Level Fort Worth Center
01:21AM 32.1417 -102.5458 292° West 384 442 36,000  Level Fort Worth Center
01:22AM 32.1872 -102.6611 295° West 384 442 36,000  Level Fort Worth Center
01:23AM 32.2306 -102.7717 295° West 379 436 36,000  Level Fort Worth Center
01:24AM 32.2736 -102.8847 294° West 379 436 36,000  Level Fort Worth Center
01:25AM 32.3186 -103.0006 295° West 379 436 36,000  Level Fort Worth Center
01:26AM 32.3556 -103.1036 293° West 379 436 36,000  Level Fort Worth Center
01:27AM 32.3983 -103.2194 294° West 384 442 36,000  Level Fort Worth Center
01:28AM 32.4431 -103.3331 295° West 384 442 36,000  Level Fort Worth Center
01:29AM 32.4886 -103.4603 293° West 384 442 36,000  Level Albuquerque Center
01:30AM 32.5300 -103.5750 293° West 381 438 36,000  Level Albuquerque Center
01:31AM 32.5722 -103.6892 294° West 380 437 36,000  Level Albuquerque Center
01:32AM 32.6147 -103.8036 294° West 381 438 36,000  Level Albuquerque Center
01:33AM 32.6667 -103.9400 294° West 385 443 36,000  Level Albuquerque Center
01:34AM 32.7111 -104.0539 295° West 381 438 36,000  Level Albuquerque Center
01:35AM 32.7528 -104.1719 293° West 384 442 36,000  Level Albuquerque Center
01:36AM 32.7967 -104.2889 294° West 386 444 36,000  Level Albuquerque Center
01:37AM 32.8386 -104.4061 293° West 384 442 36,000  Level Albuquerque Center
01:38AM 32.8828 -104.5350 292° West 388 447 36,000  Level Albuquerque Center
01:39AM 32.9247 -104.6503 293° West 382 440 36,000  Level Albuquerque Center
01:40AM 32.9653 -104.7658 293° West 379 436 36,000  Level Albuquerque Center
01:41AM 33.0069 -104.8806 293° West 378 435 36,000  Level Albuquerque Center
01:42AM 33.0481 -104.9944 293° West 375 432 36,000  Level Albuquerque Center
01:43AM 33.0892 -105.1103 293° West 379 436 36,000  Level Albuquerque Center
01:44AM 33.1303 -105.2253 293° West 378 435 36,000  Level Albuquerque Center
01:46AM 33.1706 -105.3433 293° West 383 441 36,000  Level Albuquerque Center
01:47AM 33.2128 -105.4619 293° West 388 447 36,000  Level Albuquerque Center
01:48AM 33.2575 -105.5928 292° West 394 453 36,000  Level Albuquerque Center
01:49AM 33.2928 -105.6914 293° West 400 460 36,000  Level Albuquerque Center
01:50AM 33.3425 -105.8397 293° West 402 463 36,000 -60 Level Albuquerque Center
01:51AM 33.3869 -105.9631 293° West 403 464 35,900  Descending Albuquerque Center
01:52AM 33.4283 -106.0875 292° West 404 465 36,000  Climbing Albuquerque Center
01:53AM 33.4706 -106.2117 292° West 405 466 36,000  Level Albuquerque Center
01:54AM 33.5133 -106.3356 293° West 404 465 36,000  Level Albuquerque Center
01:55AM 33.5558 -106.4600 292° West 405 466 36,000 -300 Level Albuquerque Center
01:56AM 33.5967 -106.5831 292° West 403 464 35,500 -840 Descending Albuquerque Center
01:57AM 33.6375 -106.7072 292° West 402 463 34,300 -1,380 Descending Albuquerque Center
01:58AM 33.6789 -106.8306 292° West 400 460 32,800 -1,200 Descending Albuquerque Center
01:59AM 33.7228 -106.9572 293° West 406 467 31,900 -480 Descending Albuquerque Center
02:00AM 33.7650 -107.0850 292° West 411 473 31,900  Level Albuquerque Center
02:01AM 33.8056 -107.2117 291° West 410 472 32,000  Climbing Albuquerque Center
02:02AM 33.8467 -107.3375 292° West 407 468 32,000  Level Albuquerque Center
02:03AM 33.8897 -107.4658 292° West 410 472 32,000  Level Albuquerque Center
02:04AM 33.9306 -107.5972 291° West 415 478 32,000  Level Albuquerque Center
02:05AM 33.9722 -107.7283 291° West 418 481 32,000  Level Albuquerque Center
02:06AM 34.0233 -107.8764 294° West 410 472 32,000  Level Albuquerque Center
02:07AM 34.0642 -108.0067 291° West 414 476 32,000  Level Albuquerque Center
02:08AM 34.1058 -108.1364 291° West 415 478 32,000  Level Albuquerque Center
02:09AM 34.1381 -108.2517 289° West 423 487 32,000  Level Albuquerque Center
02:10AM 34.1472 -108.4208 274° West 428 493 32,000  Level Albuquerque Center
02:11AM 34.1494 -108.5619 294° West 427 491 32,000  Level Albuquerque Center
02:12AM 34.1519 -108.7053 271° West 429 494 32,000  Level Albuquerque Center
02:13AM 34.1536 -108.8475 271° West 429 494 32,000  Level Albuquerque Center
02:14AM 34.1558 -108.9875 271° West 426 490 32,000  Level Albuquerque Center
02:15AM 34.1586 -109.1303 271° West 427 491 32,000  Level Albuquerque Center
02:16AM 34.1614 -109.2714 271° West 428 493 32,000  Level Albuquerque Center
02:17AM 34.1642 -109.4156 271° West 431 496 32,000  Level Albuquerque Center
02:18AM 34.1686 -109.5853 272° West 431 496 32,000  Level Albuquerque Center
02:19AM 34.1700 -109.7253 271° West 434 499 32,000  Level Albuquerque Center
02:20AM 34.1728 -109.8636 293° West 432 497 32,000  Level Albuquerque Center
02:21AM 34.1725 -110.0006 270° West 428 493 32,000  Level Albuquerque Center
02:22AM 34.1739 -110.1586 271° West 432 497 32,000  Level Albuquerque Center
02:23AM 34.1764 -110.3044 271° West 436 502 32,000  Level Albuquerque Center
02:24AM 34.1756 -110.4514 270° West 441 507 32,000  Level Albuquerque Center
02:25AM 34.1764 -110.5975 270° West 442 509 32,000  Level Albuquerque Center
02:26AM 34.1792 -110.7589 271° West 442 509 32,000  Level Albuquerque Center
02:27AM 34.1792 -110.9078 270° West 444 511 32,000  Level Albuquerque Center
02:28AM 34.1803 -111.0564 271° West 445 512 32,000  Level Albuquerque Center
02:29AM 34.1806 -111.2067 270° West 448 516 32,000  Level Albuquerque Center
02:30AM 34.1814 -111.3561 270° West 448 516 32,000  Level Albuquerque Center
02:31AM 34.1811 -111.5047 270° West 446 513 32,000  Level Albuquerque Center
02:32AM 34.1808 -111.6531 270° West 448 516 32,000  Level Albuquerque Center
02:33AM 34.1811 -111.8150 270° West 442 509 32,000  Level Albuquerque Center
02:34AM 34.1800 -111.9642 270° West 445 512 32,000  Level Albuquerque Center
02:35AM 34.1797 -112.0964 270° West 455 524 32,000  Level Albuquerque Center
02:36AM 34.1789 -112.2464 270° West 451 519 32,000  Level Albuquerque Center
02:37AM 34.1789 -112.4256 270° West 448 516 32,000  Level Albuquerque Center
02:38AM 34.1783 -112.5772 270° West 452 520 32,000  Level Albuquerque Center
02:39AM 34.1783 -112.7269 270° West 451 519 32,000  Level Albuquerque Center
02:40AM 34.1739 -112.8786 268° West 451 519 32,000  Level Albuquerque Center
02:41AM 34.1733 -113.0286 270° West 449 517 32,000  Level Albuquerque Center
02:42AM 34.1722 -113.1772 270° West 446 513 32,000  Level Albuquerque Center
02:43AM 34.1686 -113.3261 268° West 446 513 32,000  Level Albuquerque Center
02:44AM 34.1675 -113.4744 270° West 444 511 32,000  Level Albuquerque Center
02:45AM 34.1656 -113.6375 269° West 442 509 32,000  Level Albuquerque Center
02:46AM 34.1628 -113.7872 269° West 444 511 32,000  Level Albuquerque Center
02:47AM 34.1600 -113.9367 269° West 445 512 32,000  Level Albuquerque Center
02:48AM 34.1572 -114.0861 269° West 445 512 32,000  Level Albuquerque Center
02:49AM 34.1556 -114.2356 269° West 445 512 32,000  Level Albuquerque Center
02:50AM 34.1519 -114.3864 268° West 447 514 32,000  Level Albuquerque Center
02:51AM 34.1514 -114.4667 270° West 448 516 32,000  Level Los Angeles Center
02:52AM 34.1483 -114.6178 269° West 451 519 32,000  Level Los Angeles Center
02:53AM 34.1450 -114.7669 268° West 448 516 32,000  Level Los Angeles Center
02:54AM 34.1389 -114.9183 267° West 452 520 32,000  Level Los Angeles Center
02:55AM 34.1347 -115.0700 268° West 453 521 32,000  Level Los Angeles Center
02:56AM 34.1297 -115.2211 268° West 452 520 32,000  Level Los Angeles Center
02:57AM 34.1250 -115.3744 268° West 457 526 32,000  Level Los Angeles Center
02:58AM 34.1197 -115.5253 268° West 453 521 32,000  Level Los Angeles Center
02:59AM 34.1153 -115.6767 289° West 455 524 32,000  Level Los Angeles Center
03:00AM 34.1000 -115.8569 264° West 454 522 32,000  Level Los Angeles Center
03:01AM 34.0781 -116.0072 260° West 456 525 32,000  Level Los Angeles Center
03:02AM 34.0558 -116.1581 260° West 459 528 32,000 -420 Level Los Angeles Center
03:03AM 34.0328 -116.3086 260° West 459 528 31,200 -2,160 Descending Los Angeles Center
03:04AM 34.0103 -116.4581 260° West 457 526 27,700 -3,180 Descending Los Angeles Center
03:05AM 33.9958 -116.6089 263° West 455 524 24,800 -2,820 Descending Los Angeles Center
03:06AM 33.9839 -116.7542 264° West 441 507 22,100 -2,640 Descending Los Angeles Center
03:07AM 33.9722 -116.8936 264° West 426 490 19,500 -2,460 Descending Los Angeles Center
03:08AM 33.9611 -117.0297 264° West 414 476 17,200 -1,260 Descending Los Angeles Center
03:09AM 33.9492 -117.1731 264° West 399 459 17,000 -240 Descending Los Angeles Center
03:10AM 33.9389 -117.2994 264° West 384 442 16,800 -900 Descending Los Angeles Center
03:11AM 33.9442 -117.4044 273° West 322 371 15,300 -1,920 Descending Los Angeles Center
03:12AM 33.9833 -117.5000 296° West 291 335 13,100 -1,680 Descending Southern California TRACON
03:13AM 34.0000 -117.5833 284° West 265 305 12,100 -1,320 Descending Southern California TRACON
03:14AM 34.0167 -117.6833 281° West 262 302 10,300 -1,440 Descending Southern California TRACON
03:15AM 34.0000 -117.7667 256° West 270 311 9,200 -1,200 Descending Southern California TRACON
03:16AM 34.0000 -117.8667 270° West 268 308 8,000 -1,140 Descending Southern California TRACON
03:17AM 33.9833 -117.9500 256° West 266 306 6,800 -780 Descending Southern California TRACON
03:18AM 33.9667 -118.0333 256° West 235 270 6,500 -600 Descending Southern California TRACON
03:19AM 33.9667 -118.1000 270° West 204 235 5,600 -780 Descending Southern California TRACON
03:20AM 33.9642 -118.1531 267° West 201 231 5,100 -960 Descending Los Angeles Center
03:21AM 33.9586 -118.2050 263° West 168 193 3,800 -1,440 Descending Los Angeles Center
03:22AM 33.9533 -118.2525 262° West 150 173 2,200 -1,620 Descending Los Angeles Center